Saint Joseph, MO

6:22 PM CDT on August 28, 2015 (GMT -0500)
St. Joseph | | Change Station
CLOSE
Current Station
Airport
Location: St. Joseph,
Elevation: 817 ft
Nearby Weather Stations

Elev 817 ft 39.77 °N, 94.91 °W | Updated 29 minutes ago

Scattered Clouds
Scattered Clouds
79 °F
Feels Like 79 °F
N
14
Wind Variable Wind from South
Gusts 23 mph

Today
High -- | Low -- °F
--% Chance of Precip.
Yesterday
High -- | Low -- °F
Precip. -- in
6:43 AM 7:57 PM
Waxing Gibbous, 99% visible
Pressure 29.85 in
Visibility 10.0 miles
Clouds Scattered Clouds 4200 ft
Scattered Clouds 9000 ft
Dew Point 68 °F
Humidity 69%
Rainfall 0.02 in
Snow Depth Not available.
UV 1 out of 12
Pollen 4.70 out of 12
Air Quality Not available.
Flu Activity Not available.
METAR KSTJ 282253Z 19012G20KT 10SM SCT042 SCT090 26/20 A2987 RMK AO2 SLP107 T02610200
Pressure 29.85 in
Visibility 10.0 miles
Clouds Scattered Clouds 4200 ft
Scattered Clouds 9000 ft
Dew Point 68 °F
Humidity 69%
Rainfall 0.02 in
Snow Depth Not available.
UV 1 out of 12
Pollen 4.70 out of 12
Air Quality Not available.
Flu Activity Not available.
METAR KSTJ 282253Z 19012G20KT 10SM SCT042 SCT090 26/20 A2987 RMK AO2 SLP107 T02610200

10-Day Weather Forecast

×

Almanac

Astronomy

Aug. 28, 2015 Rise Set
Actual Time
Civil Twilight
Nautical Twilight
Astronomical Twilight
Moon
Length of Visible Light
Length of Day
Tomorrow will be .
, % of the Moon is Illuminated

Today's Extremes

State Highs State Lows

Community

WunderPhotos

Upload Photos

1,850,530 photos uploaded!

WunderBlogs® & News

Nearby

Air Quality

  Air Quality AQ Index Pollutant
Not available.

Snow Depth

Station Depth Elevation

Earthquake Activity

City Distance Mag. Time & Date
Minimum magnitude displayed is 2.5.

Coastal Water Temperatures

Place Temperature

Stations

Nearby Weather Stations

Station Location Temp. Windchill Dew Point Humidity Wind Precip. Elev Updated Type